createdAt,value
2022-11-17T00:00:40.214Z,18.80
2022-11-17T00:01:41.166Z,19.30
2022-11-17T00:02:41.164Z,18.40
2022-11-17T00:03:41.039Z,20.10
2022-11-17T00:04:40.962Z,20.90
2022-11-17T00:05:40.900Z,21.60
2022-11-17T00:06:40.840Z,18.50
2022-11-17T00:07:40.766Z,19.20
2022-11-17T00:08:40.707Z,19.40
2022-11-17T00:09:40.620Z,19.10
2022-11-17T00:10:40.581Z,19.00
2022-11-17T00:11:40.551Z,20.60
2022-11-17T00:12:40.431Z,18.40
2022-11-17T00:13:40.371Z,17.40
2022-11-17T00:14:40.329Z,16.60
2022-11-17T00:15:40.254Z,16.30
2022-11-17T00:16:40.194Z,14.50
2022-11-17T00:17:40.136Z,13.90
2022-11-17T00:18:40.075Z,11.80
2022-11-17T00:19:39.988Z,12.60
2022-11-17T00:20:39.916Z,12.10
2022-11-17T00:21:39.874Z,13.10
2022-11-17T00:22:39.808Z,13.80
2022-11-17T00:23:39.745Z,15.40
2022-11-17T00:24:39.668Z,14.70
2022-11-17T00:25:39.597Z,14.30
2022-11-17T00:26:39.547Z,13.30
2022-11-17T00:27:39.494Z,12.40
2022-11-17T00:28:39.432Z,12.70
2022-11-17T00:29:39.585Z,12.00
2022-11-17T00:30:42.492Z,12.20
2022-11-17T00:31:39.233Z,11.90
2022-11-17T00:32:39.151Z,12.70
2022-11-17T00:33:39.103Z,13.80
2022-11-17T00:34:39.030Z,15.10
2022-11-17T00:35:40.190Z,13.70
2022-11-17T00:36:38.898Z,12.00
2022-11-17T00:37:38.853Z,13.90
2022-11-17T00:38:38.766Z,14.00
2022-11-17T00:39:38.706Z,15.30
2022-11-17T00:40:38.651Z,15.00
2022-11-17T00:41:38.863Z,13.90
2022-11-17T00:42:38.531Z,12.80
2022-11-17T00:43:39.187Z,12.10
2022-11-17T00:44:38.411Z,13.20
2022-11-17T00:45:38.301Z,14.00
2022-11-17T00:46:38.269Z,13.40
2022-11-17T00:47:38.218Z,12.90
2022-11-17T00:48:38.139Z,12.80
2022-11-17T00:49:38.078Z,12.80
2022-11-17T00:50:38.005Z,14.40
2022-11-17T00:51:37.933Z,14.00
2022-11-17T00:52:37.894Z,13.20
2022-11-17T00:55:56.274Z,12.50
2022-11-17T00:56:57.190Z,14.20
2022-11-17T00:57:57.131Z,13.00
2022-11-17T00:58:57.074Z,12.00
2022-11-17T00:59:57.018Z,14.30
2022-11-17T01:00:56.939Z,13.70
2022-11-17T01:01:56.896Z,12.60
2022-11-17T01:02:56.793Z,12.90
2022-11-17T01:03:56.763Z,13.20
2022-11-17T01:04:56.681Z,13.40
2022-11-17T01:05:56.589Z,14.90
2022-11-17T01:06:56.673Z,13.90
2022-11-17T01:07:56.472Z,14.00
2022-11-17T01:08:56.424Z,12.70
2022-11-17T01:09:56.372Z,13.10
2022-11-17T01:10:56.301Z,13.60
2022-11-17T01:11:56.242Z,13.00
2022-11-17T01:15:14.626Z,11.90
2022-11-17T01:16:15.547Z,12.30
2022-11-17T01:17:15.493Z,11.00
2022-11-17T01:18:15.425Z,10.90
2022-11-17T01:19:15.361Z,11.90
2022-11-17T01:20:15.288Z,10.80
2022-11-17T01:21:15.238Z,12.40
2022-11-17T01:22:15.163Z,12.20
2022-11-17T01:23:15.085Z,12.00
2022-11-17T01:24:15.042Z,11.70
2022-11-17T01:25:14.985Z,12.10
2022-11-17T01:26:14.919Z,11.90
2022-11-17T01:27:14.834Z,12.20
2022-11-17T01:28:14.764Z,11.30
2022-11-17T01:29:14.722Z,11.60
2022-11-17T01:30:14.638Z,10.60
2022-11-17T01:31:14.575Z,11.20
2022-11-17T01:32:35.484Z,10.60
2022-11-17T01:33:14.453Z,11.40
2022-11-17T01:34:14.374Z,12.80
2022-11-17T01:35:14.342Z,11.60
2022-11-17T01:36:14.269Z,11.00
2022-11-17T01:37:14.185Z,12.40
2022-11-17T01:38:14.147Z,12.80
2022-11-17T01:39:14.063Z,11.50
2022-11-17T01:40:14.002Z,12.30
2022-11-17T01:41:13.947Z,11.50
2022-11-17T01:42:13.878Z,11.70
2022-11-17T01:43:14.550Z,12.00
2022-11-17T01:44:13.787Z,11.00
2022-11-17T01:45:13.696Z,11.80
2022-11-17T01:46:13.628Z,11.90
2022-11-17T01:47:13.552Z,11.40
2022-11-17T01:48:13.497Z,11.60
2022-11-17T01:49:13.449Z,12.40
2022-11-17T01:52:31.809Z,11.70
2022-11-17T01:53:33.060Z,11.90
2022-11-17T01:54:32.684Z,12.50
2022-11-17T01:55:32.603Z,12.60
2022-11-17T01:56:32.560Z,12.50
2022-11-17T01:57:32.526Z,12.70
2022-11-17T01:58:32.425Z,13.30
2022-11-17T01:59:32.368Z,14.20
2022-11-17T02:00:32.298Z,13.00
2022-11-17T02:01:32.309Z,13.50
2022-11-17T02:02:32.171Z,13.80
2022-11-17T02:03:32.329Z,15.50
2022-11-17T02:04:32.048Z,15.50
2022-11-17T02:05:31.994Z,15.90
2022-11-17T02:06:31.919Z,14.80
2022-11-17T02:07:31.941Z,14.00
2022-11-17T02:08:31.792Z,15.00
2022-11-17T02:09:31.726Z,14.40
2022-11-17T02:10:31.672Z,14.00
2022-11-17T02:11:31.603Z,13.40
2022-11-17T02:12:31.548Z,13.80
2022-11-17T02:13:31.541Z,13.30
2022-11-17T02:14:31.423Z,14.20
2022-11-17T02:15:31.616Z,13.70
2022-11-17T02:16:31.294Z,12.60
2022-11-17T02:17:31.233Z,13.20
2022-11-17T02:18:31.168Z,13.90
2022-11-17T02:19:31.101Z,14.10
2022-11-17T02:20:31.026Z,13.50
2022-11-17T02:21:30.956Z,14.50
2022-11-17T02:22:30.896Z,14.20
2022-11-17T02:23:30.861Z,14.00
2022-11-17T02:24:30.758Z,14.00
2022-11-17T02:25:30.709Z,14.50
2022-11-17T02:26:30.618Z,13.20
2022-11-17T02:27:30.601Z,14.30
2022-11-17T02:28:30.505Z,13.90
2022-11-17T02:29:30.468Z,14.00
2022-11-17T02:30:30.398Z,13.80
2022-11-17T02:31:31.258Z,15.00
2022-11-17T02:32:30.276Z,14.20
2022-11-17T02:33:30.200Z,13.90
2022-11-17T02:34:30.127Z,14.10
2022-11-17T02:35:30.079Z,14.60
2022-11-17T02:36:29.997Z,14.00
2022-11-17T02:37:29.920Z,14.30
2022-11-17T02:38:29.895Z,14.80
2022-11-17T02:39:29.838Z,14.60
2022-11-17T02:40:29.757Z,14.70
2022-11-17T02:41:29.688Z,13.60
2022-11-17T02:42:29.601Z,14.00
2022-11-17T02:43:29.540Z,14.10
2022-11-17T02:44:29.502Z,14.30
2022-11-17T02:45:50.417Z,14.30
2022-11-17T02:46:29.352Z,14.70
2022-11-17T02:47:29.285Z,14.50
2022-11-17T02:48:29.246Z,15.00
2022-11-17T02:49:29.160Z,15.90
2022-11-17T02:50:29.088Z,15.70
2022-11-17T02:51:29.074Z,16.20
2022-11-17T02:52:28.984Z,16.00
2022-11-17T02:53:28.914Z,15.60
2022-11-17T02:54:28.859Z,14.80
2022-11-17T02:55:28.785Z,14.60
2022-11-17T02:56:28.769Z,16.30
2022-11-17T02:57:28.686Z,15.70
2022-11-17T02:58:28.622Z,16.00
2022-11-17T02:59:28.543Z,16.50
2022-11-17T03:00:28.462Z,16.20
2022-11-17T03:01:28.493Z,14.80
2022-11-17T03:02:28.325Z,15.00
2022-11-17T03:03:53.244Z,14.50
2022-11-17T03:04:28.215Z,14.70
2022-11-17T03:05:28.154Z,14.30
2022-11-17T03:06:28.073Z,14.30
2022-11-17T03:07:28.047Z,14.70
2022-11-17T03:08:32.739Z,15.00
2022-11-17T03:09:27.922Z,14.50
2022-11-17T03:10:27.824Z,14.50
2022-11-17T03:11:27.772Z,14.60
2022-11-17T03:12:27.702Z,16.10
2022-11-17T03:13:27.650Z,15.60
2022-11-17T03:14:27.551Z,15.50
2022-11-17T03:15:27.507Z,14.70
2022-11-17T03:16:27.453Z,14.00
2022-11-17T03:17:27.373Z,14.60
2022-11-17T03:18:27.323Z,14.10
2022-11-17T03:19:27.250Z,13.70
2022-11-17T03:20:27.177Z,14.40
2022-11-17T03:21:27.148Z,13.70
2022-11-17T03:22:27.070Z,15.30
2022-11-17T03:23:27.001Z,14.30
2022-11-17T03:24:26.940Z,13.70
2022-11-17T03:25:26.868Z,14.30
2022-11-17T03:26:26.796Z,13.30
2022-11-17T03:27:26.748Z,12.90
2022-11-17T03:28:26.678Z,13.90
2022-11-17T03:29:26.606Z,13.60
2022-11-17T03:30:26.555Z,14.00
2022-11-17T03:31:26.494Z,13.50
2022-11-17T03:32:26.426Z,14.60
2022-11-17T03:33:26.378Z,13.60
2022-11-17T03:34:26.271Z,15.00
2022-11-17T03:35:26.213Z,14.10
2022-11-17T03:36:26.145Z,14.30
2022-11-17T03:37:26.097Z,13.40
2022-11-17T03:38:26.015Z,13.60
2022-11-17T03:39:46.931Z,13.20
2022-11-17T03:40:25.889Z,12.10
2022-11-17T03:41:25.829Z,11.90
2022-11-17T03:42:25.788Z,12.20
2022-11-17T03:43:25.687Z,12.70
2022-11-17T03:44:25.627Z,12.20
2022-11-17T03:45:25.594Z,12.60
2022-11-17T03:46:25.524Z,12.30
2022-11-17T03:47:25.465Z,12.90
2022-11-17T03:48:25.385Z,14.00
2022-11-17T03:49:25.334Z,14.10
2022-11-17T03:50:25.263Z,12.30
2022-11-17T03:51:25.227Z,12.90
2022-11-17T03:52:25.144Z,11.70
2022-11-17T03:53:25.050Z,11.20
2022-11-17T03:54:25.014Z,11.90
2022-11-17T03:55:24.944Z,12.10
2022-11-17T03:56:24.858Z,11.20
2022-11-17T03:57:24.820Z,12.00
2022-11-17T03:58:24.736Z,11.70
2022-11-17T03:59:24.680Z,13.00
2022-11-17T04:00:24.592Z,12.70
2022-11-17T04:01:24.560Z,13.10
2022-11-17T04:02:24.498Z,12.40
2022-11-17T04:03:24.425Z,12.10
2022-11-17T04:04:24.334Z,13.10
2022-11-17T04:05:24.290Z,12.30
2022-11-17T04:06:24.216Z,11.20
2022-11-17T04:07:24.240Z,12.10
2022-11-17T04:08:24.098Z,12.00
2022-11-17T04:09:24.741Z,12.50
2022-11-17T04:10:23.965Z,11.70
2022-11-17T04:11:23.902Z,12.00
2022-11-17T04:12:23.841Z,12.30
2022-11-17T04:13:23.782Z,12.20
2022-11-17T04:14:23.709Z,12.50
2022-11-17T04:15:23.677Z,11.40
2022-11-17T04:16:23.573Z,10.30
2022-11-17T04:17:23.519Z,10.90
2022-11-17T04:18:23.459Z,10.60
2022-11-17T04:19:23.371Z,10.60
2022-11-17T04:20:23.328Z,10.90
2022-11-17T04:21:23.278Z,11.30
2022-11-17T04:22:23.208Z,11.50
2022-11-17T04:23:23.140Z,11.50
2022-11-17T04:24:23.067Z,10.80
2022-11-17T04:25:23.039Z,10.30
2022-11-17T04:26:22.930Z,11.00
2022-11-17T04:27:23.223Z,11.20
2022-11-17T04:28:22.816Z,11.20
2022-11-17T04:29:22.732Z,10.60
2022-11-17T04:30:22.687Z,11.00
2022-11-17T04:31:22.611Z,12.20
2022-11-17T04:32:22.534Z,9.80
2022-11-17T04:33:22.505Z,10.10
2022-11-17T04:34:22.400Z,11.20
2022-11-17T04:35:22.359Z,10.50
2022-11-17T04:36:22.280Z,10.90
2022-11-17T04:37:22.241Z,10.80
2022-11-17T04:38:22.161Z,11.00
2022-11-17T04:39:22.119Z,11.30
2022-11-17T04:40:22.047Z,11.20
2022-11-17T04:41:21.968Z,10.20
2022-11-17T04:42:21.912Z,11.30
2022-11-17T04:43:21.838Z,9.90
2022-11-17T04:44:21.774Z,10.80
2022-11-17T04:45:21.744Z,10.60
2022-11-17T04:46:21.647Z,10.90
2022-11-17T04:47:21.588Z,10.10
2022-11-17T04:48:21.520Z,9.80
2022-11-17T04:49:21.485Z,10.10
2022-11-17T04:50:21.402Z,10.40
2022-11-17T04:51:21.353Z,10.70
2022-11-17T04:52:25.415Z,11.20
2022-11-17T04:53:21.210Z,10.80
2022-11-17T04:54:21.139Z,9.60
2022-11-17T04:55:21.088Z,10.20
2022-11-17T04:56:20.997Z,10.70
2022-11-17T04:57:21.002Z,9.90
2022-11-17T04:58:20.882Z,11.10
2022-11-17T04:59:20.815Z,10.10
2022-11-17T05:00:20.774Z,10.90
2022-11-17T05:01:20.687Z,11.60
2022-11-17T05:02:20.716Z,11.50
2022-11-17T05:03:20.572Z,12.10
2022-11-17T05:04:20.530Z,11.60
2022-11-17T05:05:20.422Z,11.80
2022-11-17T05:06:20.379Z,12.40
2022-11-17T05:07:20.311Z,14.00
2022-11-17T05:08:21.230Z,17.90
2022-11-17T05:09:20.208Z,21.50
2022-11-17T05:10:20.137Z,17.20
2022-11-17T05:11:20.803Z,20.00
2022-11-17T05:12:19.974Z,24.40
2022-11-17T05:13:19.914Z,25.50
2022-11-17T05:14:19.858Z,22.30
2022-11-17T05:15:19.841Z,20.90
2022-11-17T05:16:19.752Z,27.00
2022-11-17T05:17:19.665Z,27.10
2022-11-17T05:18:19.553Z,29.40
2022-11-17T05:19:19.488Z,27.40
2022-11-17T05:20:19.423Z,31.50
2022-11-17T05:21:19.441Z,31.70
2022-11-17T05:22:19.354Z,30.50
2022-11-17T05:23:19.291Z,30.30
2022-11-17T05:24:19.231Z,29.90
2022-11-17T05:25:19.167Z,29.60
2022-11-17T05:26:19.095Z,27.70
2022-11-17T05:27:19.066Z,29.50
2022-11-17T05:28:18.976Z,30.10
2022-11-17T05:29:18.911Z,20.20
2022-11-17T05:30:18.825Z,21.30
2022-11-17T05:31:18.765Z,21.80
2022-11-17T05:32:18.659Z,23.30
2022-11-17T05:33:18.900Z,21.20
2022-11-17T05:34:18.567Z,25.10
2022-11-17T05:35:18.513Z,28.80
2022-11-17T05:36:18.450Z,28.70
2022-11-17T05:37:18.397Z,32.10
2022-11-17T05:38:18.303Z,30.60
2022-11-17T05:39:18.269Z,29.30
2022-11-17T05:40:18.219Z,32.80
2022-11-17T05:41:18.130Z,27.10
2022-11-17T05:42:18.072Z,26.80
2022-11-17T05:43:17.989Z,35.00
2022-11-17T05:44:17.964Z,31.60
2022-11-17T05:45:17.853Z,34.80
2022-11-17T05:46:17.818Z,38.40
2022-11-17T05:47:18.220Z,40.00
2022-11-17T05:48:17.695Z,37.70
2022-11-17T05:49:17.613Z,36.80
2022-11-17T05:50:17.548Z,34.00
2022-11-17T05:51:17.514Z,36.30
2022-11-17T05:52:17.436Z,39.80
2022-11-17T05:53:17.359Z,39.20
2022-11-17T05:54:17.313Z,40.80
2022-11-17T05:55:17.242Z,39.40
2022-11-17T05:56:17.171Z,37.70
2022-11-17T05:57:17.117Z,32.40
2022-11-17T05:58:17.043Z,36.20
2022-11-17T05:59:16.963Z,36.00
2022-11-17T06:00:16.907Z,34.60
2022-11-17T06:01:16.860Z,35.50
2022-11-17T06:02:16.807Z,31.50
2022-11-17T06:03:16.734Z,29.90
2022-11-17T06:04:16.713Z,31.90
2022-11-17T06:05:20.195Z,31.80
2022-11-17T06:06:16.524Z,31.00
2022-11-17T06:07:16.523Z,34.10
2022-11-17T06:08:16.398Z,33.80
2022-11-17T06:09:16.344Z,31.20
2022-11-17T06:10:16.264Z,28.00
2022-11-17T06:11:16.226Z,27.90
2022-11-17T06:12:16.171Z,27.50
2022-11-17T06:13:16.092Z,25.00
2022-11-17T06:14:16.014Z,21.40
2022-11-17T06:15:15.965Z,24.50
2022-11-17T06:16:15.913Z,24.70
2022-11-17T06:17:20.585Z,24.10
2022-11-17T06:18:15.789Z,22.30
2022-11-17T06:19:15.726Z,25.50
2022-11-17T06:20:15.652Z,25.50
2022-11-17T06:22:04.483Z,24.50
2022-11-17T06:22:15.511Z,24.80
2022-11-17T06:23:15.464Z,24.10
2022-11-17T06:24:15.352Z,24.80
2022-11-17T06:25:15.330Z,25.80
2022-11-17T06:26:15.271Z,25.40
2022-11-17T06:27:15.174Z,24.20
2022-11-17T06:28:15.098Z,25.40
2022-11-17T06:29:16.319Z,25.40
2022-11-17T06:30:15.138Z,25.10
2022-11-17T06:31:14.886Z,28.90
2022-11-17T06:32:14.828Z,26.90
2022-11-17T06:33:14.787Z,28.30
2022-11-17T06:34:14.652Z,27.90
2022-11-17T06:35:14.624Z,28.90
2022-11-17T06:36:14.557Z,28.30
2022-11-17T06:37:14.489Z,26.70
2022-11-17T06:38:14.434Z,28.80
2022-11-17T06:40:44.823Z,27.10
2022-11-17T06:41:24.483Z,26.70
2022-11-17T06:42:24.412Z,26.90
2022-11-17T06:43:24.337Z,25.80
2022-11-17T06:44:24.275Z,26.00
2022-11-17T06:45:24.216Z,28.20
2022-11-17T06:46:24.134Z,26.00
2022-11-17T06:47:24.092Z,24.40
2022-11-17T06:48:24.041Z,27.80
2022-11-17T06:49:23.960Z,26.40
2022-11-17T06:50:23.922Z,29.40
2022-11-17T06:51:23.840Z,26.90
2022-11-17T06:52:23.753Z,25.10
2022-11-17T06:53:23.759Z,25.00
2022-11-17T06:54:23.666Z,25.10
2022-11-17T06:55:23.593Z,24.10
2022-11-17T06:58:41.912Z,23.60
2022-11-17T06:59:42.802Z,25.10
2022-11-17T07:00:42.800Z,22.20
2022-11-17T07:01:42.709Z,23.20
2022-11-17T07:02:42.637Z,26.60
2022-11-17T07:03:42.597Z,25.90
2022-11-17T07:04:42.484Z,26.30
2022-11-17T07:05:42.446Z,27.70
2022-11-17T07:06:42.350Z,29.50
2022-11-17T07:07:42.325Z,20.50
2022-11-17T07:08:42.216Z,28.00
2022-11-17T07:09:42.159Z,23.20
2022-11-17T07:10:47.924Z,19.90
2022-11-17T07:11:43.456Z,23.70
2022-11-17T07:12:42.848Z,23.80
2022-11-17T07:13:42.929Z,22.20
2022-11-17T07:14:43.359Z,20.50
2022-11-17T07:15:44.097Z,20.30
2022-11-17T07:16:42.768Z,22.00
2022-11-17T07:17:41.687Z,19.30
2022-11-17T07:18:41.584Z,21.00
2022-11-17T07:19:41.542Z,20.20
2022-11-17T07:20:41.484Z,20.40
2022-11-17T07:21:41.370Z,19.50
2022-11-17T07:22:41.354Z,17.80
2022-11-17T07:23:41.295Z,19.50
2022-11-17T07:24:41.196Z,17.70
2022-11-17T07:25:41.126Z,19.70
2022-11-17T07:26:41.053Z,18.80
2022-11-17T07:27:41.007Z,19.90
2022-11-17T07:28:41.924Z,18.20
2022-11-17T07:29:41.851Z,17.00
2022-11-17T07:30:40.842Z,17.10
2022-11-17T07:31:40.709Z,19.40
2022-11-17T07:32:40.668Z,19.30
2022-11-17T07:34:01.627Z,15.50
2022-11-17T07:34:40.556Z,15.50
2022-11-17T07:35:40.510Z,16.80
2022-11-17T07:36:41.451Z,18.00
2022-11-17T07:37:40.354Z,17.10
2022-11-17T07:38:40.799Z,16.50
2022-11-17T07:39:40.432Z,18.10
2022-11-17T07:40:41.349Z,13.30
2022-11-17T07:41:40.875Z,17.90
2022-11-17T07:42:40.105Z,15.70
2022-11-17T07:43:39.977Z,16.30
2022-11-17T07:44:39.902Z,17.50
2022-11-17T07:45:40.164Z,17.20
2022-11-17T07:46:40.350Z,16.80
2022-11-17T07:47:39.715Z,14.00
2022-11-17T07:48:39.846Z,13.20
2022-11-17T07:49:39.619Z,14.80
2022-11-17T07:50:39.552Z,12.60
2022-11-17T07:51:41.939Z,11.00
2022-11-17T07:52:41.630Z,12.80
2022-11-17T07:53:39.334Z,13.90
2022-11-17T07:54:39.261Z,12.30
2022-11-17T07:55:39.233Z,11.40
2022-11-17T07:56:39.127Z,10.80
2022-11-17T07:57:39.108Z,11.00
2022-11-17T07:58:39.500Z,11.60
2022-11-17T07:59:38.940Z,11.20
2022-11-17T08:00:38.915Z,14.30
2022-11-17T08:01:38.800Z,13.10
2022-11-17T08:02:38.736Z,13.30
2022-11-17T08:03:38.790Z,13.40
2022-11-17T08:04:38.656Z,12.00
2022-11-17T08:05:43.360Z,15.00
2022-11-17T08:06:38.517Z,13.80
2022-11-17T08:07:38.510Z,14.70
2022-11-17T08:08:38.812Z,11.60
2022-11-17T08:09:38.321Z,12.60
2022-11-17T08:10:38.275Z,12.20
2022-11-17T08:11:38.163Z,11.60
2022-11-17T08:12:38.126Z,13.20
2022-11-17T08:13:38.078Z,12.00
2022-11-17T08:14:38.019Z,13.80
2022-11-17T08:15:38.219Z,13.60
2022-11-17T08:16:37.839Z,14.00
2022-11-17T08:17:37.775Z,11.90
2022-11-17T08:18:37.960Z,14.10
2022-11-17T08:19:37.673Z,10.50
2022-11-17T08:20:37.644Z,12.80
2022-11-17T08:21:37.570Z,15.50
2022-11-17T08:22:37.452Z,13.90
2022-11-17T08:23:39.344Z,14.80
2022-11-17T08:24:43.838Z,15.30
2022-11-17T08:25:42.837Z,17.00
2022-11-17T08:26:43.785Z,16.80
2022-11-17T08:27:43.336Z,15.30
2022-11-17T08:28:37.933Z,14.80
2022-11-17T08:29:37.922Z,15.60
2022-11-17T08:30:38.385Z,15.30
2022-11-17T08:31:36.913Z,13.50
2022-11-17T08:32:36.839Z,15.30
2022-11-17T08:33:37.085Z,14.60
2022-11-17T08:34:36.710Z,16.40
2022-11-17T08:35:37.877Z,15.80
2022-11-17T08:36:36.567Z,14.40
2022-11-17T08:37:37.918Z,14.80
2022-11-17T08:38:36.739Z,14.80
2022-11-17T08:39:36.363Z,14.80
2022-11-17T08:40:36.289Z,15.80
2022-11-17T08:41:36.328Z,12.80
2022-11-17T08:42:36.200Z,13.60
2022-11-17T08:43:36.140Z,12.90
2022-11-17T08:44:36.041Z,12.50
2022-11-17T08:45:35.990Z,13.20
2022-11-17T08:46:36.096Z,12.70
2022-11-17T08:47:35.880Z,11.00
2022-11-17T08:48:36.177Z,11.10
2022-11-17T08:49:35.721Z,10.40
2022-11-17T08:50:35.674Z,11.10
2022-11-17T08:51:35.666Z,11.90
2022-11-17T08:52:35.536Z,9.50
2022-11-17T08:53:35.451Z,9.60
2022-11-17T08:54:35.414Z,10.40
2022-11-17T08:55:39.646Z,10.20
2022-11-17T08:56:35.309Z,10.00
2022-11-17T08:57:35.200Z,10.20
2022-11-17T08:58:35.575Z,10.40
2022-11-17T08:59:35.046Z,9.50
2022-11-17T09:00:35.178Z,10.20
2022-11-17T09:01:34.987Z,11.90
2022-11-17T09:02:34.903Z,10.40
2022-11-17T09:03:34.863Z,9.20
2022-11-17T09:04:34.756Z,9.50
2022-11-17T09:05:34.649Z,10.80
2022-11-17T09:06:34.604Z,9.70
2022-11-17T09:07:35.079Z,10.10
2022-11-17T09:08:49.925Z,9.80
2022-11-17T09:09:34.494Z,9.40
2022-11-17T09:10:34.312Z,9.20
2022-11-17T09:11:34.312Z,10.10
2022-11-17T09:12:34.242Z,7.90
2022-11-17T09:13:34.135Z,7.20
2022-11-17T09:14:34.104Z,8.50
2022-11-17T09:15:34.051Z,8.70
2022-11-17T09:16:33.979Z,8.50
2022-11-17T09:17:33.986Z,8.20
2022-11-17T09:18:34.183Z,8.20
2022-11-17T09:19:33.852Z,7.90
2022-11-17T09:20:33.753Z,7.60
2022-11-17T09:21:54.651Z,8.00
2022-11-17T09:22:33.554Z,8.70
2022-11-17T09:23:33.858Z,8.90
2022-11-17T09:24:33.484Z,10.70
2022-11-17T09:25:33.402Z,11.00
2022-11-17T09:26:33.303Z,9.10
2022-11-17T09:27:33.302Z,9.70
2022-11-17T09:28:33.375Z,8.30
2022-11-17T09:29:33.139Z,8.70
2022-11-17T09:30:33.075Z,9.00
2022-11-17T09:31:33.065Z,8.40
2022-11-17T09:32:32.947Z,8.70
2022-11-17T09:33:32.858Z,8.40
2022-11-17T09:34:32.865Z,8.60
2022-11-17T09:35:32.779Z,8.00
2022-11-17T09:36:32.750Z,9.90
2022-11-17T09:37:32.611Z,9.40
2022-11-17T09:38:32.840Z,8.60
2022-11-17T09:39:32.496Z,7.40
2022-11-17T09:40:37.711Z,6.20
2022-11-17T09:41:32.376Z,7.20
2022-11-17T09:42:32.313Z,7.70
2022-11-17T09:43:32.235Z,7.70
2022-11-17T09:44:32.820Z,7.70
2022-11-17T09:45:32.095Z,8.40
2022-11-17T09:46:32.037Z,7.80
2022-11-17T09:47:31.977Z,9.10
2022-11-17T09:48:41.128Z,8.20
2022-11-17T09:49:31.819Z,7.50
2022-11-17T09:50:32.311Z,7.10
2022-11-17T09:51:31.768Z,8.20
2022-11-17T09:52:31.630Z,8.00
2022-11-17T09:53:31.577Z,6.80
2022-11-17T09:54:31.556Z,6.50
2022-11-17T09:55:34.438Z,6.80
2022-11-17T09:56:31.385Z,5.40
2022-11-17T09:59:50.880Z,5.30
2022-11-17T10:00:50.616Z,4.80
2022-11-17T10:01:50.640Z,5.30
2022-11-17T10:02:50.447Z,6.20
2022-11-17T10:03:50.745Z,6.40
2022-11-17T10:04:50.363Z,5.90
2022-11-17T10:05:50.379Z,5.00
2022-11-17T10:06:50.322Z,5.50
2022-11-17T10:07:50.157Z,5.20
2022-11-17T10:08:50.103Z,6.30
2022-11-17T10:09:50.008Z,5.50
2022-11-17T10:10:49.973Z,4.80
2022-11-17T10:11:50.186Z,4.90
2022-11-17T10:12:49.863Z,4.90
2022-11-17T10:13:49.753Z,5.10
2022-11-17T10:14:49.785Z,4.60
2022-11-17T10:15:50.648Z,3.90
2022-11-17T10:16:58.653Z,4.30
2022-11-17T10:18:10.534Z,4.70
2022-11-17T10:18:49.494Z,4.40
2022-11-17T10:19:49.374Z,4.90
2022-11-17T10:20:49.313Z,5.70
2022-11-17T10:21:49.269Z,5.80
2022-11-17T10:22:49.215Z,5.70
2022-11-17T10:23:49.333Z,5.20
2022-11-17T10:24:49.104Z,5.30
2022-11-17T10:25:49.025Z,5.00
2022-11-17T10:26:48.974Z,5.20
2022-11-17T10:27:48.935Z,4.70
2022-11-17T10:28:48.810Z,5.00
2022-11-17T10:29:48.766Z,5.40
2022-11-17T10:30:48.653Z,5.70
2022-11-17T10:31:48.673Z,6.20
2022-11-17T10:32:48.704Z,5.80
2022-11-17T10:33:48.595Z,6.80
2022-11-17T10:34:48.548Z,4.30
2022-11-17T10:35:48.360Z,4.70
2022-11-17T10:36:48.362Z,4.70
2022-11-17T10:37:49.686Z,4.90
2022-11-17T10:38:48.426Z,4.90
2022-11-17T10:39:48.572Z,5.50
2022-11-17T10:40:48.079Z,5.90
2022-11-17T10:41:47.975Z,6.40
2022-11-17T10:42:47.925Z,5.50
2022-11-17T10:43:48.225Z,5.90
2022-11-17T10:44:48.669Z,6.10
2022-11-17T10:45:47.712Z,5.80
2022-11-17T10:46:47.773Z,6.10
2022-11-17T10:47:47.592Z,6.70
2022-11-17T10:48:47.662Z,7.10
2022-11-17T10:49:48.154Z,8.00
2022-11-17T10:50:47.408Z,8.20
2022-11-17T10:51:47.881Z,8.10
2022-11-17T10:52:47.876Z,8.60
2022-11-17T10:53:49.526Z,8.90
2022-11-17T10:54:47.187Z,10.40
2022-11-17T10:55:48.803Z,11.10
2022-11-17T10:56:47.442Z,11.20
2022-11-17T10:57:46.967Z,11.00
2022-11-17T10:58:49.027Z,11.00
2022-11-17T10:59:51.998Z,11.10
2022-11-17T11:00:46.837Z,11.40
2022-11-17T11:01:49.339Z,12.70
2022-11-17T11:02:46.606Z,13.10
2022-11-17T11:03:46.599Z,57.20
2022-11-17T11:04:46.501Z,12.70
2022-11-17T11:05:46.753Z,11.40
2022-11-17T11:06:47.240Z,12.10
2022-11-17T11:07:47.333Z,12.20
2022-11-17T11:08:47.829Z,12.70
2022-11-17T11:09:46.239Z,12.20
2022-11-17T11:10:47.428Z,13.20
2022-11-17T11:11:49.155Z,12.00
2022-11-17T11:12:45.950Z,13.10
2022-11-17T11:13:46.158Z,15.40
2022-11-17T11:14:45.839Z,12.20
2022-11-17T11:15:48.707Z,11.80
2022-11-17T11:16:48.267Z,11.50
2022-11-17T11:17:45.857Z,13.00
2022-11-17T11:18:45.615Z,13.40
2022-11-17T11:19:45.533Z,14.70
2022-11-17T11:20:46.666Z,12.20
2022-11-17T11:21:45.454Z,15.30
2022-11-17T11:22:45.358Z,14.30
2022-11-17T11:23:45.481Z,14.90
2022-11-17T11:24:47.791Z,15.30
2022-11-17T11:25:47.570Z,12.90
2022-11-17T11:26:46.680Z,10.50
2022-11-17T11:27:45.049Z,10.50
2022-11-17T11:28:50.127Z,10.70
2022-11-17T11:29:46.136Z,10.90
2022-11-17T11:30:44.879Z,10.70
2022-11-17T11:31:44.753Z,9.70
2022-11-17T11:32:46.345Z,9.40
2022-11-17T11:33:44.742Z,8.20
2022-11-17T11:34:44.599Z,7.60
2022-11-17T11:35:44.503Z,7.10
2022-11-17T11:36:46.868Z,7.40
2022-11-17T11:37:44.663Z,8.50
2022-11-17T11:38:44.333Z,7.30
2022-11-17T11:39:45.654Z,7.60
2022-11-17T11:40:44.215Z,7.30
2022-11-17T11:41:44.119Z,7.40
2022-11-17T11:42:44.067Z,7.30
2022-11-17T11:43:43.997Z,7.70
2022-11-17T11:44:43.941Z,7.20
2022-11-17T11:45:43.892Z,7.20
2022-11-17T11:46:43.850Z,8.20
2022-11-17T11:50:02.119Z,7.30
2022-11-17T11:51:03.038Z,7.40
2022-11-17T11:52:02.941Z,9.10
2022-11-17T11:53:02.890Z,8.40
2022-11-17T11:54:02.823Z,9.10
2022-11-17T11:55:02.866Z,8.10
2022-11-17T11:56:02.695Z,8.80
2022-11-17T11:57:03.587Z,7.90
2022-11-17T11:58:02.592Z,8.40
2022-11-17T11:59:02.537Z,8.80
2022-11-17T12:00:04.428Z,9.50
2022-11-17T12:01:02.395Z,10.60
2022-11-17T12:02:02.396Z,8.50
2022-11-17T12:03:02.341Z,8.60
2022-11-17T12:04:02.207Z,7.70
2022-11-17T12:05:02.200Z,9.10
2022-11-17T12:06:02.101Z,7.40
2022-11-17T12:07:24.360Z,7.50
2022-11-17T12:08:06.008Z,7.00
2022-11-17T12:09:01.903Z,8.80
2022-11-17T12:10:01.852Z,10.00
2022-11-17T12:11:02.857Z,10.90
2022-11-17T12:12:01.725Z,8.10
2022-11-17T12:13:22.565Z,7.50
2022-11-17T12:14:01.564Z,7.50
2022-11-17T12:15:01.673Z,8.50
2022-11-17T12:16:01.423Z,7.70
2022-11-17T12:17:01.362Z,8.00
2022-11-17T12:18:01.302Z,8.30
2022-11-17T12:19:01.278Z,6.60
2022-11-17T12:20:04.613Z,6.70
2022-11-17T12:21:01.156Z,7.40
2022-11-17T12:22:01.037Z,6.50
2022-11-17T12:23:00.970Z,7.80
2022-11-17T12:24:00.911Z,6.00
2022-11-17T12:25:00.919Z,5.40
2022-11-17T12:26:00.817Z,5.20
2022-11-17T12:27:00.724Z,4.90
2022-11-17T12:28:00.681Z,4.50
2022-11-17T12:29:00.602Z,5.40
2022-11-17T12:30:01.204Z,6.00
2022-11-17T12:31:05.063Z,5.60
2022-11-17T12:32:00.394Z,4.90
2022-11-17T12:33:00.373Z,5.50
2022-11-17T12:34:00.299Z,6.80
2022-11-17T12:35:00.196Z,6.30
2022-11-17T12:36:00.118Z,6.20
2022-11-17T12:37:00.129Z,5.50
2022-11-17T12:38:00.039Z,5.90
2022-11-17T12:38:59.968Z,7.50
2022-11-17T12:39:59.924Z,6.90
2022-11-17T12:40:59.811Z,7.60
2022-11-17T12:41:59.720Z,7.00
2022-11-17T12:45:18.072Z,5.80
2022-11-17T12:46:18.996Z,6.70
2022-11-17T12:47:18.904Z,7.30
2022-11-17T12:48:33.512Z,8.30
2022-11-17T12:49:18.829Z,8.60
2022-11-17T12:50:18.804Z,7.80
2022-11-17T12:51:18.666Z,8.80
2022-11-17T12:52:18.631Z,9.60
2022-11-17T12:53:18.508Z,9.60
2022-11-17T12:54:18.485Z,8.60
2022-11-17T12:55:18.406Z,8.80
2022-11-17T12:56:18.346Z,10.00
2022-11-17T12:57:18.255Z,7.80
2022-11-17T12:58:18.205Z,8.20
2022-11-17T12:59:18.154Z,8.90
2022-11-17T13:00:18.114Z,7.20
2022-11-17T13:01:18.101Z,5.90
2022-11-17T13:02:20.408Z,6.00
2022-11-17T13:03:17.906Z,5.90
2022-11-17T13:04:17.834Z,7.20
2022-11-17T13:05:17.768Z,6.30
2022-11-17T13:06:35.055Z,6.00
2022-11-17T13:07:17.651Z,7.30
2022-11-17T13:08:17.633Z,6.90
2022-11-17T13:09:17.514Z,8.20
2022-11-17T13:10:17.445Z,8.10
2022-11-17T13:11:17.480Z,8.10
2022-11-17T13:12:17.288Z,6.10
2022-11-17T13:13:17.263Z,6.40
2022-11-17T13:14:17.674Z,5.80
2022-11-17T13:15:17.132Z,6.00
2022-11-17T13:16:17.067Z,6.00